sensor_id;sensor_type;location;lat;lon;timestamp;P1;durP1;ratioP1;P2;durP2;ratioP2
54929;SDS011;40833;53.238;6.576;2022-07-29T00:00:42;2.13;;;0.40;;
54929;SDS011;40833;53.238;6.576;2022-07-29T00:03:12;3.57;;;0.30;;
54929;SDS011;40833;53.238;6.576;2022-07-29T00:05:39;4.43;;;0.33;;
54929;SDS011;40833;53.238;6.576;2022-07-29T00:08:06;2.10;;;0.40;;
54929;SDS011;40833;53.238;6.576;2022-07-29T00:10:32;3.43;;;0.50;;
54929;SDS011;40833;53.238;6.576;2022-07-29T00:12:58;2.37;;;0.60;;
54929;SDS011;40833;53.238;6.576;2022-07-29T00:15:24;0.87;;;0.20;;
54929;SDS011;40833;53.238;6.576;2022-07-29T00:17:49;2.70;;;0.40;;
54929;SDS011;40833;53.238;6.576;2022-07-29T00:20:15;2.97;;;0.63;;
54929;SDS011;40833;53.238;6.576;2022-07-29T00:22:41;1.70;;;0.33;;
54929;SDS011;40833;53.238;6.576;2022-07-29T00:25:07;3.27;;;0.40;;
54929;SDS011;40833;53.238;6.576;2022-07-29T00:27:33;0.57;;;0.27;;
54929;SDS011;40833;53.238;6.576;2022-07-29T00:30:00;1.40;;;0.33;;
54929;SDS011;40833;53.238;6.576;2022-07-29T00:32:25;3.50;;;0.43;;
54929;SDS011;40833;53.238;6.576;2022-07-29T00:34:51;4.07;;;0.30;;
54929;SDS011;40833;53.238;6.576;2022-07-29T00:37:35;1.47;;;0.50;;
54929;SDS011;40833;53.238;6.576;2022-07-29T00:40:01;2.33;;;0.30;;
54929;SDS011;40833;53.238;6.576;2022-07-29T00:42:27;0.90;;;0.40;;
54929;SDS011;40833;53.238;6.576;2022-07-29T00:44:52;0.80;;;0.40;;
54929;SDS011;40833;53.238;6.576;2022-07-29T00:47:18;1.60;;;0.30;;
54929;SDS011;40833;53.238;6.576;2022-07-29T00:49:44;0.47;;;0.40;;
54929;SDS011;40833;53.238;6.576;2022-07-29T00:52:10;1.70;;;0.43;;
54929;SDS011;40833;53.238;6.576;2022-07-29T00:54:37;4.20;;;0.47;;
54929;SDS011;40833;53.238;6.576;2022-07-29T00:57:04;1.67;;;0.30;;
54929;SDS011;40833;53.238;6.576;2022-07-29T00:59:31;1.13;;;0.30;;
54929;SDS011;40833;53.238;6.576;2022-07-29T01:01:57;4.20;;;0.53;;
54929;SDS011;40833;53.238;6.576;2022-07-29T01:04:22;3.17;;;0.33;;
54929;SDS011;40833;53.238;6.576;2022-07-29T01:06:48;1.33;;;0.40;;
54929;SDS011;40833;53.238;6.576;2022-07-29T01:09:15;0.33;;;0.20;;
54929;SDS011;40833;53.238;6.576;2022-07-29T01:11:43;2.07;;;0.70;;
54929;SDS011;40833;53.238;6.576;2022-07-29T01:14:09;1.63;;;0.37;;
54929;SDS011;40833;53.238;6.576;2022-07-29T01:16:42;1.73;;;0.20;;
54929;SDS011;40833;53.238;6.576;2022-07-29T01:22:21;0.83;;;0.23;;
54929;SDS011;40833;53.238;6.576;2022-07-29T01:27:47;3.63;;;0.50;;
54929;SDS011;40833;53.238;6.576;2022-07-29T01:30:25;1.60;;;0.50;;
54929;SDS011;40833;53.238;6.576;2022-07-29T01:32:56;2.53;;;0.40;;
54929;SDS011;40833;53.238;6.576;2022-07-29T01:35:28;2.17;;;0.40;;
54929;SDS011;40833;53.238;6.576;2022-07-29T01:38:01;4.40;;;0.60;;
54929;SDS011;40833;53.238;6.576;2022-07-29T01:43:44;1.93;;;0.70;;
54929;SDS011;40833;53.238;6.576;2022-07-29T01:46:22;1.40;;;0.60;;
54929;SDS011;40833;53.238;6.576;2022-07-29T01:48:57;1.08;;;0.38;;
54929;SDS011;40833;53.238;6.576;2022-07-29T01:51:40;1.67;;;0.43;;
54929;SDS011;40833;53.238;6.576;2022-07-29T01:56:55;4.67;;;0.60;;
54929;SDS011;40833;53.238;6.576;2022-07-29T01:59:23;3.50;;;0.37;;
54929;SDS011;40833;53.238;6.576;2022-07-29T02:01:50;4.20;;;0.53;;
54929;SDS011;40833;53.238;6.576;2022-07-29T02:04:18;1.20;;;0.40;;
54929;SDS011;40833;53.238;6.576;2022-07-29T02:06:45;4.33;;;0.50;;
54929;SDS011;40833;53.238;6.576;2022-07-29T02:09:14;3.60;;;0.50;;
54929;SDS011;40833;53.238;6.576;2022-07-29T02:11:41;1.70;;;0.40;;
54929;SDS011;40833;53.238;6.576;2022-07-29T02:14:12;2.10;;;0.45;;
54929;SDS011;40833;53.238;6.576;2022-07-29T02:16:40;4.23;;;0.50;;
54929;SDS011;40833;53.238;6.576;2022-07-29T02:19:06;2.53;;;0.60;;
54929;SDS011;40833;53.238;6.576;2022-07-29T02:21:35;1.60;;;0.63;;
54929;SDS011;40833;53.238;6.576;2022-07-29T02:24:01;1.70;;;0.60;;
54929;SDS011;40833;53.238;6.576;2022-07-29T02:26:27;2.53;;;0.70;;
54929;SDS011;40833;53.238;6.576;2022-07-29T02:28:56;2.93;;;0.50;;
54929;SDS011;40833;53.238;6.576;2022-07-29T02:31:25;1.93;;;0.47;;
54929;SDS011;40833;53.238;6.576;2022-07-29T02:33:54;1.50;;;0.60;;
54929;SDS011;40833;53.238;6.576;2022-07-29T02:36:21;1.60;;;0.30;;
54929;SDS011;40833;53.238;6.576;2022-07-29T02:38:48;7.27;;;0.63;;
54929;SDS011;40833;53.238;6.576;2022-07-29T02:41:17;5.77;;;0.73;;
54929;SDS011;40833;53.238;6.576;2022-07-29T02:44:04;2.30;;;0.50;;
54929;SDS011;40833;53.238;6.576;2022-07-29T02:46:35;3.80;;;0.57;;
54929;SDS011;40833;53.238;6.576;2022-07-29T02:49:10;1.57;;;0.50;;
54929;SDS011;40833;53.238;6.576;2022-07-29T02:59:51;2.37;;;0.67;;
54929;SDS011;40833;53.238;6.576;2022-07-29T03:02:18;1.88;;;0.45;;
54929;SDS011;40833;53.238;6.576;2022-07-29T03:04:46;1.70;;;0.40;;
54929;SDS011;40833;53.238;6.576;2022-07-29T03:07:14;5.13;;;0.60;;
54929;SDS011;40833;53.238;6.576;2022-07-29T03:09:43;3.77;;;0.60;;
54929;SDS011;40833;53.238;6.576;2022-07-29T03:12:10;2.80;;;0.50;;
54929;SDS011;40833;53.238;6.576;2022-07-29T03:14:36;1.77;;;0.60;;
54929;SDS011;40833;53.238;6.576;2022-07-29T03:17:03;2.60;;;0.60;;
54929;SDS011;40833;53.238;6.576;2022-07-29T03:19:29;1.37;;;0.40;;
54929;SDS011;40833;53.238;6.576;2022-07-29T03:21:57;3.57;;;0.57;;
54929;SDS011;40833;53.238;6.576;2022-07-29T03:24:30;3.70;;;0.63;;
54929;SDS011;40833;53.238;6.576;2022-07-29T03:26:57;4.40;;;0.50;;
54929;SDS011;40833;53.238;6.576;2022-07-29T03:29:23;4.80;;;0.60;;
54929;SDS011;40833;53.238;6.576;2022-07-29T03:31:50;2.43;;;0.50;;
54929;SDS011;40833;53.238;6.576;2022-07-29T03:34:16;2.80;;;0.40;;
54929;SDS011;40833;53.238;6.576;2022-07-29T03:36:41;2.00;;;0.67;;
54929;SDS011;40833;53.238;6.576;2022-07-29T03:39:07;4.43;;;0.70;;
54929;SDS011;40833;53.238;6.576;2022-07-29T03:41:34;3.77;;;0.50;;
54929;SDS011;40833;53.238;6.576;2022-07-29T03:44:03;3.23;;;0.70;;
54929;SDS011;40833;53.238;6.576;2022-07-29T03:46:32;2.73;;;0.80;;
54929;SDS011;40833;53.238;6.576;2022-07-29T03:49:00;2.57;;;0.47;;
54929;SDS011;40833;53.238;6.576;2022-07-29T03:51:29;5.40;;;0.70;;
54929;SDS011;40833;53.238;6.576;2022-07-29T03:53:56;3.77;;;0.93;;
54929;SDS011;40833;53.238;6.576;2022-07-29T03:56:22;2.73;;;0.53;;
54929;SDS011;40833;53.238;6.576;2022-07-29T03:58:52;3.23;;;0.80;;
54929;SDS011;40833;53.238;6.576;2022-07-29T04:01:18;8.90;;;0.87;;
54929;SDS011;40833;53.238;6.576;2022-07-29T04:03:45;2.40;;;0.67;;
54929;SDS011;40833;53.238;6.576;2022-07-29T04:06:12;4.00;;;1.73;;
54929;SDS011;40833;53.238;6.576;2022-07-29T04:08:37;3.83;;;0.60;;
54929;SDS011;40833;53.238;6.576;2022-07-29T04:11:03;4.13;;;0.87;;
54929;SDS011;40833;53.238;6.576;2022-07-29T04:13:30;4.57;;;0.77;;
54929;SDS011;40833;53.238;6.576;2022-07-29T04:15:56;3.53;;;0.77;;
54929;SDS011;40833;53.238;6.576;2022-07-29T04:18:23;4.73;;;0.60;;
54929;SDS011;40833;53.238;6.576;2022-07-29T04:20:48;1.97;;;0.57;;
54929;SDS011;40833;53.238;6.576;2022-07-29T04:23:14;5.60;;;0.60;;
54929;SDS011;40833;53.238;6.576;2022-07-29T04:25:40;2.93;;;0.70;;
54929;SDS011;40833;53.238;6.576;2022-07-29T04:28:08;4.80;;;0.70;;
54929;SDS011;40833;53.238;6.576;2022-07-29T04:30:34;4.30;;;0.50;;
54929;SDS011;40833;53.238;6.576;2022-07-29T04:33:02;5.23;;;0.87;;
54929;SDS011;40833;53.238;6.576;2022-07-29T04:35:29;1.97;;;0.50;;
54929;SDS011;40833;53.238;6.576;2022-07-29T04:37:55;2.00;;;0.60;;
54929;SDS011;40833;53.238;6.576;2022-07-29T04:40:21;4.63;;;0.60;;
54929;SDS011;40833;53.238;6.576;2022-07-29T04:42:47;1.07;;;0.50;;
54929;SDS011;40833;53.238;6.576;2022-07-29T04:45:13;6.50;;;0.73;;
54929;SDS011;40833;53.238;6.576;2022-07-29T04:47:39;5.80;;;0.57;;
54929;SDS011;40833;53.238;6.576;2022-07-29T04:50:05;3.70;;;0.40;;
54929;SDS011;40833;53.238;6.576;2022-07-29T04:52:32;3.70;;;0.50;;
54929;SDS011;40833;53.238;6.576;2022-07-29T04:54:57;3.97;;;0.57;;
54929;SDS011;40833;53.238;6.576;2022-07-29T04:57:23;1.60;;;0.50;;
54929;SDS011;40833;53.238;6.576;2022-07-29T04:59:49;7.93;;;0.60;;
54929;SDS011;40833;53.238;6.576;2022-07-29T05:02:14;2.90;;;0.40;;
54929;SDS011;40833;53.238;6.576;2022-07-29T05:04:40;2.20;;;0.50;;
54929;SDS011;40833;53.238;6.576;2022-07-29T05:07:06;6.33;;;0.53;;
54929;SDS011;40833;53.238;6.576;2022-07-29T05:09:31;2.47;;;0.40;;
54929;SDS011;40833;53.238;6.576;2022-07-29T05:11:57;6.63;;;0.70;;
54929;SDS011;40833;53.238;6.576;2022-07-29T05:14:23;2.53;;;1.03;;
54929;SDS011;40833;53.238;6.576;2022-07-29T05:16:49;3.63;;;0.50;;
54929;SDS011;40833;53.238;6.576;2022-07-29T05:19:16;2.60;;;0.73;;
54929;SDS011;40833;53.238;6.576;2022-07-29T05:21:42;3.37;;;0.70;;
54929;SDS011;40833;53.238;6.576;2022-07-29T05:24:09;2.53;;;0.70;;
54929;SDS011;40833;53.238;6.576;2022-07-29T05:26:35;2.83;;;0.70;;
54929;SDS011;40833;53.238;6.576;2022-07-29T05:29:01;4.73;;;0.60;;
54929;SDS011;40833;53.238;6.576;2022-07-29T05:31:27;3.73;;;0.77;;
54929;SDS011;40833;53.238;6.576;2022-07-29T05:33:52;4.13;;;0.63;;
54929;SDS011;40833;53.238;6.576;2022-07-29T05:36:18;4.57;;;0.40;;
54929;SDS011;40833;53.238;6.576;2022-07-29T05:38:44;4.97;;;0.53;;
54929;SDS011;40833;53.238;6.576;2022-07-29T05:41:10;3.40;;;0.67;;
54929;SDS011;40833;53.238;6.576;2022-07-29T05:43:35;5.27;;;0.50;;
54929;SDS011;40833;53.238;6.576;2022-07-29T05:46:01;6.27;;;0.47;;
54929;SDS011;40833;53.238;6.576;2022-07-29T05:48:27;2.90;;;0.60;;
54929;SDS011;40833;53.238;6.576;2022-07-29T05:50:53;1.63;;;0.40;;
54929;SDS011;40833;53.238;6.576;2022-07-29T05:53:19;4.17;;;0.63;;
54929;SDS011;40833;53.238;6.576;2022-07-29T05:55:45;6.17;;;0.63;;
54929;SDS011;40833;53.238;6.576;2022-07-29T05:58:11;5.20;;;0.60;;
54929;SDS011;40833;53.238;6.576;2022-07-29T06:00:37;3.40;;;0.57;;
54929;SDS011;40833;53.238;6.576;2022-07-29T06:03:03;2.17;;;0.60;;
54929;SDS011;40833;53.238;6.576;2022-07-29T06:05:28;9.83;;;1.30;;
54929;SDS011;40833;53.238;6.576;2022-07-29T06:07:54;5.13;;;0.50;;
54929;SDS011;40833;53.238;6.576;2022-07-29T06:10:20;5.33;;;0.63;;
54929;SDS011;40833;53.238;6.576;2022-07-29T06:12:45;2.83;;;0.47;;
54929;SDS011;40833;53.238;6.576;2022-07-29T06:15:11;1.53;;;0.43;;
54929;SDS011;40833;53.238;6.576;2022-07-29T06:17:37;2.23;;;0.70;;
54929;SDS011;40833;53.238;6.576;2022-07-29T06:20:05;3.90;;;0.73;;
54929;SDS011;40833;53.238;6.576;2022-07-29T06:22:31;2.30;;;0.70;;
54929;SDS011;40833;53.238;6.576;2022-07-29T06:24:57;6.70;;;0.60;;
54929;SDS011;40833;53.238;6.576;2022-07-29T06:27:22;3.63;;;0.47;;
54929;SDS011;40833;53.238;6.576;2022-07-29T06:29:48;4.20;;;0.70;;
54929;SDS011;40833;53.238;6.576;2022-07-29T06:32:14;2.67;;;0.60;;
54929;SDS011;40833;53.238;6.576;2022-07-29T06:34:40;3.80;;;0.70;;
54929;SDS011;40833;53.238;6.576;2022-07-29T06:37:06;6.43;;;1.00;;
54929;SDS011;40833;53.238;6.576;2022-07-29T06:39:33;4.23;;;0.40;;
54929;SDS011;40833;53.238;6.576;2022-07-29T06:42:01;6.10;;;0.70;;
54929;SDS011;40833;53.238;6.576;2022-07-29T06:44:28;6.00;;;0.60;;
54929;SDS011;40833;53.238;6.576;2022-07-29T06:46:54;2.37;;;0.40;;
54929;SDS011;40833;53.238;6.576;2022-07-29T06:49:20;6.37;;;0.80;;
54929;SDS011;40833;53.238;6.576;2022-07-29T06:51:46;8.33;;;0.70;;
54929;SDS011;40833;53.238;6.576;2022-07-29T06:54:12;6.70;;;1.00;;
54929;SDS011;40833;53.238;6.576;2022-07-29T06:56:38;7.37;;;1.60;;
54929;SDS011;40833;53.238;6.576;2022-07-29T06:59:07;3.77;;;0.77;;
54929;SDS011;40833;53.238;6.576;2022-07-29T07:01:33;4.33;;;0.70;;
54929;SDS011;40833;53.238;6.576;2022-07-29T07:04:01;3.10;;;1.20;;
54929;SDS011;40833;53.238;6.576;2022-07-29T07:06:27;3.85;;;0.63;;
54929;SDS011;40833;53.238;6.576;2022-07-29T07:08:53;4.55;;;0.32;;
54929;SDS011;40833;53.238;6.576;2022-07-29T07:11:22;4.53;;;0.85;;
54929;SDS011;40833;53.238;6.576;2022-07-29T07:13:48;4.17;;;0.77;;
54929;SDS011;40833;53.238;6.576;2022-07-29T07:16:14;3.25;;;1.50;;
54929;SDS011;40833;53.238;6.576;2022-07-29T07:18:40;4.78;;;0.75;;
54929;SDS011;40833;53.238;6.576;2022-07-29T07:21:05;3.17;;;0.68;;
54929;SDS011;40833;53.238;6.576;2022-07-29T07:23:31;3.45;;;0.30;;
54929;SDS011;40833;53.238;6.576;2022-07-29T07:25:57;2.05;;;0.52;;
54929;SDS011;40833;53.238;6.576;2022-07-29T07:28:25;2.42;;;0.57;;
54929;SDS011;40833;53.238;6.576;2022-07-29T07:30:51;9.65;;;0.73;;
54929;SDS011;40833;53.238;6.576;2022-07-29T07:33:17;4.75;;;0.52;;
54929;SDS011;40833;53.238;6.576;2022-07-29T07:35:43;1.58;;;0.35;;
54929;SDS011;40833;53.238;6.576;2022-07-29T07:38:09;2.60;;;0.43;;
54929;SDS011;40833;53.238;6.576;2022-07-29T07:40:35;5.20;;;1.15;;
54929;SDS011;40833;53.238;6.576;2022-07-29T07:43:00;2.35;;;0.82;;
54929;SDS011;40833;53.238;6.576;2022-07-29T07:45:26;3.50;;;0.60;;
54929;SDS011;40833;53.238;6.576;2022-07-29T07:47:52;4.20;;;0.88;;
54929;SDS011;40833;53.238;6.576;2022-07-29T07:50:18;7.35;;;0.55;;
54929;SDS011;40833;53.238;6.576;2022-07-29T07:52:51;2.28;;;0.85;;
54929;SDS011;40833;53.238;6.576;2022-07-29T07:55:18;5.68;;;0.38;;
54929;SDS011;40833;53.238;6.576;2022-07-29T07:57:45;3.17;;;0.50;;
54929;SDS011;40833;53.238;6.576;2022-07-29T08:00:12;6.97;;;1.05;;
54929;SDS011;40833;53.238;6.576;2022-07-29T08:02:39;4.78;;;0.63;;
54929;SDS011;40833;53.238;6.576;2022-07-29T08:05:05;3.78;;;0.63;;
54929;SDS011;40833;53.238;6.576;2022-07-29T08:07:32;6.40;;;0.80;;
54929;SDS011;40833;53.238;6.576;2022-07-29T08:10:01;3.95;;;0.80;;
54929;SDS011;40833;53.238;6.576;2022-07-29T08:12:27;8.15;;;0.90;;
54929;SDS011;40833;53.238;6.576;2022-07-29T08:14:53;2.80;;;0.80;;
54929;SDS011;40833;53.238;6.576;2022-07-29T08:17:19;4.05;;;0.73;;
54929;SDS011;40833;53.238;6.576;2022-07-29T08:19:44;4.00;;;1.13;;
54929;SDS011;40833;53.238;6.576;2022-07-29T08:22:11;3.80;;;0.85;;
54929;SDS011;40833;53.238;6.576;2022-07-29T08:24:36;4.78;;;0.98;;
54929;SDS011;40833;53.238;6.576;2022-07-29T08:27:08;5.32;;;0.65;;
54929;SDS011;40833;53.238;6.576;2022-07-29T08:29:36;4.57;;;0.85;;
54929;SDS011;40833;53.238;6.576;2022-07-29T08:32:02;6.15;;;0.80;;
54929;SDS011;40833;53.238;6.576;2022-07-29T08:34:28;1.65;;;0.65;;
54929;SDS011;40833;53.238;6.576;2022-07-29T08:36:54;4.43;;;0.77;;
54929;SDS011;40833;53.238;6.576;2022-07-29T08:39:21;2.30;;;0.70;;
54929;SDS011;40833;53.238;6.576;2022-07-29T08:41:47;5.90;;;0.75;;
54929;SDS011;40833;53.238;6.576;2022-07-29T08:44:17;7.75;;;1.00;;
54929;SDS011;40833;53.238;6.576;2022-07-29T08:46:44;3.40;;;0.50;;
54929;SDS011;40833;53.238;6.576;2022-07-29T08:49:10;3.28;;;0.80;;
54929;SDS011;40833;53.238;6.576;2022-07-29T08:51:36;4.03;;;0.95;;
54929;SDS011;40833;53.238;6.576;2022-07-29T08:54:05;5.20;;;1.08;;
54929;SDS011;40833;53.238;6.576;2022-07-29T08:56:33;8.15;;;1.00;;
54929;SDS011;40833;53.238;6.576;2022-07-29T08:58:59;6.82;;;0.95;;
54929;SDS011;40833;53.238;6.576;2022-07-29T09:01:28;4.05;;;1.20;;
54929;SDS011;40833;53.238;6.576;2022-07-29T09:03:57;4.53;;;0.63;;
54929;SDS011;40833;53.238;6.576;2022-07-29T09:06:26;3.58;;;0.98;;
54929;SDS011;40833;53.238;6.576;2022-07-29T09:08:58;5.88;;;0.93;;
54929;SDS011;40833;53.238;6.576;2022-07-29T09:11:25;2.40;;;0.70;;
54929;SDS011;40833;53.238;6.576;2022-07-29T09:13:51;3.20;;;0.70;;
54929;SDS011;40833;53.238;6.576;2022-07-29T09:16:17;1.88;;;0.77;;
54929;SDS011;40833;53.238;6.576;2022-07-29T09:18:43;6.85;;;0.60;;
54929;SDS011;40833;53.238;6.576;2022-07-29T09:21:11;4.78;;;1.35;;
54929;SDS011;40833;53.238;6.576;2022-07-29T09:24:06;3.03;;;0.75;;
54929;SDS011;40833;53.238;6.576;2022-07-29T09:26:37;6.03;;;0.77;;
54929;SDS011;40833;53.238;6.576;2022-07-29T09:29:21;2.38;;;0.60;;
54929;SDS011;40833;53.238;6.576;2022-07-29T09:31:52;3.42;;;0.80;;
54929;SDS011;40833;53.238;6.576;2022-07-29T09:34:25;5.13;;;0.80;;
54929;SDS011;40833;53.238;6.576;2022-07-29T09:36:54;2.83;;;0.73;;
54929;SDS011;40833;53.238;6.576;2022-07-29T09:39:28;2.53;;;1.15;;
54929;SDS011;40833;53.238;6.576;2022-07-29T09:41:56;2.63;;;0.75;;
54929;SDS011;40833;53.238;6.576;2022-07-29T09:44:23;3.17;;;1.15;;
54929;SDS011;40833;53.238;6.576;2022-07-29T09:46:59;5.90;;;0.98;;
54929;SDS011;40833;53.238;6.576;2022-07-29T09:49:33;3.55;;;0.80;;
54929;SDS011;40833;53.238;6.576;2022-07-29T09:52:07;5.93;;;1.00;;
54929;SDS011;40833;53.238;6.576;2022-07-29T09:54:34;3.85;;;0.90;;
54929;SDS011;40833;53.238;6.576;2022-07-29T09:57:05;5.18;;;1.00;;
54929;SDS011;40833;53.238;6.576;2022-07-29T09:59:32;5.35;;;1.05;;
54929;SDS011;40833;53.238;6.576;2022-07-29T10:01:58;3.05;;;0.88;;
54929;SDS011;40833;53.238;6.576;2022-07-29T10:04:26;6.80;;;0.93;;
54929;SDS011;40833;53.238;6.576;2022-07-29T10:07:05;4.18;;;1.02;;
54929;SDS011;40833;53.238;6.576;2022-07-29T10:09:32;7.28;;;0.90;;
54929;SDS011;40833;53.238;6.576;2022-07-29T10:12:11;4.28;;;0.90;;
54929;SDS011;40833;53.238;6.576;2022-07-29T10:14:39;3.30;;;0.87;;
54929;SDS011;40833;53.238;6.576;2022-07-29T10:17:06;4.88;;;1.13;;
54929;SDS011;40833;53.238;6.576;2022-07-29T10:19:33;4.88;;;0.93;;
54929;SDS011;40833;53.238;6.576;2022-07-29T10:22:01;6.13;;;1.70;;
54929;SDS011;40833;53.238;6.576;2022-07-29T10:24:29;4.35;;;1.23;;
54929;SDS011;40833;53.238;6.576;2022-07-29T10:26:57;5.15;;;1.45;;
54929;SDS011;40833;53.238;6.576;2022-07-29T10:29:25;7.75;;;1.20;;
54929;SDS011;40833;53.238;6.576;2022-07-29T10:32:02;4.22;;;1.10;;
54929;SDS011;40833;53.238;6.576;2022-07-29T10:40:25;9.05;;;1.52;;
54929;SDS011;40833;53.238;6.576;2022-07-29T10:43:18;4.57;;;1.00;;
54929;SDS011;40833;53.238;6.576;2022-07-29T10:45:46;4.00;;;1.10;;
54929;SDS011;40833;53.238;6.576;2022-07-29T10:48:14;6.53;;;1.60;;
54929;SDS011;40833;53.238;6.576;2022-07-29T10:50:57;7.03;;;1.40;;
54929;SDS011;40833;53.238;6.576;2022-07-29T10:56:27;4.97;;;1.45;;
54929;SDS011;40833;53.238;6.576;2022-07-29T11:01:49;7.43;;;1.60;;
54929;SDS011;40833;53.238;6.576;2022-07-29T11:04:16;9.02;;;1.55;;
54929;SDS011;40833;53.238;6.576;2022-07-29T11:07:10;8.73;;;1.45;;
54929;SDS011;40833;53.238;6.576;2022-07-29T11:09:37;11.95;;;1.70;;
54929;SDS011;40833;53.238;6.576;2022-07-29T11:12:04;1.83;;;1.08;;
54929;SDS011;40833;53.238;6.576;2022-07-29T11:17:24;5.93;;;1.90;;
54929;SDS011;40833;53.238;6.576;2022-07-29T11:19:50;9.52;;;1.70;;
54929;SDS011;40833;53.238;6.576;2022-07-29T11:22:35;7.30;;;2.03;;
54929;SDS011;40833;53.238;6.576;2022-07-29T11:25:15;7.85;;;1.60;;
54929;SDS011;40833;53.238;6.576;2022-07-29T11:27:42;6.30;;;2.05;;
54929;SDS011;40833;53.238;6.576;2022-07-29T11:30:08;4.50;;;1.88;;
54929;SDS011;40833;53.238;6.576;2022-07-29T11:32:35;4.88;;;1.80;;
54929;SDS011;40833;53.238;6.576;2022-07-29T11:35:16;4.45;;;1.50;;
54929;SDS011;40833;53.238;6.576;2022-07-29T11:37:47;6.88;;;1.70;;
54929;SDS011;40833;53.238;6.576;2022-07-29T11:43:47;5.78;;;2.20;;
54929;SDS011;40833;53.238;6.576;2022-07-29T11:46:16;3.72;;;1.50;;
54929;SDS011;40833;53.238;6.576;2022-07-29T11:49:03;8.60;;;2.25;;
54929;SDS011;40833;53.238;6.576;2022-07-29T11:51:32;10.75;;;1.90;;
54929;SDS011;40833;53.238;6.576;2022-07-29T11:53:59;5.72;;;1.80;;
54929;SDS011;40833;53.238;6.576;2022-07-29T11:56:26;4.88;;;1.90;;
54929;SDS011;40833;53.238;6.576;2022-07-29T11:59:06;2.17;;;1.15;;
54929;SDS011;40833;53.238;6.576;2022-07-29T12:01:34;4.63;;;1.42;;
54929;SDS011;40833;53.238;6.576;2022-07-29T12:04:04;7.50;;;1.35;;
54929;SDS011;40833;53.238;6.576;2022-07-29T12:06:31;4.18;;;1.50;;
54929;SDS011;40833;53.238;6.576;2022-07-29T12:08:58;8.20;;;1.60;;
54929;SDS011;40833;53.238;6.576;2022-07-29T12:11:25;4.53;;;1.30;;
54929;SDS011;40833;53.238;6.576;2022-07-29T12:13:51;5.55;;;1.75;;
54929;SDS011;40833;53.238;6.576;2022-07-29T12:16:18;8.65;;;1.25;;
54929;SDS011;40833;53.238;6.576;2022-07-29T12:18:58;7.05;;;1.23;;
54929;SDS011;40833;53.238;6.576;2022-07-29T12:21:25;3.72;;;1.02;;
54929;SDS011;40833;53.238;6.576;2022-07-29T12:23:52;7.90;;;1.55;;
54929;SDS011;40833;53.238;6.576;2022-07-29T12:26:19;2.95;;;1.05;;
54929;SDS011;40833;53.238;6.576;2022-07-29T12:28:45;6.32;;;1.52;;
54929;SDS011;40833;53.238;6.576;2022-07-29T12:31:14;3.95;;;0.98;;
54929;SDS011;40833;53.238;6.576;2022-07-29T12:33:40;7.10;;;1.27;;
54929;SDS011;40833;53.238;6.576;2022-07-29T12:36:07;8.65;;;1.20;;
54929;SDS011;40833;53.238;6.576;2022-07-29T12:38:36;7.18;;;1.13;;
54929;SDS011;40833;53.238;6.576;2022-07-29T12:41:02;4.10;;;1.00;;
54929;SDS011;40833;53.238;6.576;2022-07-29T12:43:28;3.10;;;0.75;;
54929;SDS011;40833;53.238;6.576;2022-07-29T12:45:55;4.82;;;0.90;;
54929;SDS011;40833;53.238;6.576;2022-07-29T12:48:34;3.55;;;1.10;;
54929;SDS011;40833;53.238;6.576;2022-07-29T12:51:02;5.57;;;1.38;;
54929;SDS011;40833;53.238;6.576;2022-07-29T12:53:29;4.47;;;0.80;;
54929;SDS011;40833;53.238;6.576;2022-07-29T12:55:55;6.45;;;1.30;;
54929;SDS011;40833;53.238;6.576;2022-07-29T12:58:31;7.00;;;1.10;;
54929;SDS011;40833;53.238;6.576;2022-07-29T13:01:11;9.02;;;1.23;;
54929;SDS011;40833;53.238;6.576;2022-07-29T13:06:29;5.25;;;1.08;;
54929;SDS011;40833;53.238;6.576;2022-07-29T13:09:13;3.58;;;0.80;;
54929;SDS011;40833;53.238;6.576;2022-07-29T13:14:10;8.73;;;1.70;;
54929;SDS011;40833;53.238;6.576;2022-07-29T13:17:23;6.70;;;1.17;;
54929;SDS011;40833;53.238;6.576;2022-07-29T13:22:05;7.18;;;1.17;;
54929;SDS011;40833;53.238;6.576;2022-07-29T13:24:45;4.22;;;1.30;;
54929;SDS011;40833;53.238;6.576;2022-07-29T13:27:15;3.65;;;0.98;;
54929;SDS011;40833;53.238;6.576;2022-07-29T13:29:42;9.18;;;1.10;;
54929;SDS011;40833;53.238;6.576;2022-07-29T13:32:08;2.47;;;1.10;;
54929;SDS011;40833;53.238;6.576;2022-07-29T13:34:33;6.05;;;0.70;;
54929;SDS011;40833;53.238;6.576;2022-07-29T13:36:59;5.10;;;1.13;;
54929;SDS011;40833;53.238;6.576;2022-07-29T13:39:24;3.95;;;1.00;;
54929;SDS011;40833;53.238;6.576;2022-07-29T13:41:51;6.82;;;1.50;;
54929;SDS011;40833;53.238;6.576;2022-07-29T13:44:17;7.22;;;1.05;;
54929;SDS011;40833;53.238;6.576;2022-07-29T13:46:43;10.25;;;1.00;;
54929;SDS011;40833;53.238;6.576;2022-07-29T13:53:36;4.35;;;0.80;;
54929;SDS011;40833;53.238;6.576;2022-07-29T13:56:03;7.60;;;1.45;;
54929;SDS011;40833;53.238;6.576;2022-07-29T14:04:32;3.42;;;0.52;;
54929;SDS011;40833;53.238;6.576;2022-07-29T14:06:58;2.00;;;0.77;;
54929;SDS011;40833;53.238;6.576;2022-07-29T14:09:26;9.13;;;1.17;;
54929;SDS011;40833;53.238;6.576;2022-07-29T14:12:58;3.20;;;0.60;;
54929;SDS011;40833;53.238;6.576;2022-07-29T14:26:50;1.98;;;0.57;;
54929;SDS011;40833;53.238;6.576;2022-07-29T14:29:16;3.55;;;0.57;;
54929;SDS011;40833;53.238;6.576;2022-07-29T14:31:41;7.10;;;2.40;;
54929;SDS011;40833;53.238;6.576;2022-07-29T14:34:08;3.90;;;0.80;;
54929;SDS011;40833;53.238;6.576;2022-07-29T14:36:34;6.80;;;1.52;;
54929;SDS011;40833;53.238;6.576;2022-07-29T14:38:59;4.63;;;0.70;;
54929;SDS011;40833;53.238;6.576;2022-07-29T14:43:40;2.88;;;0.60;;
54929;SDS011;40833;53.238;6.576;2022-07-29T14:46:05;5.50;;;0.63;;
54929;SDS011;40833;53.238;6.576;2022-07-29T14:48:32;3.05;;;0.60;;
54929;SDS011;40833;53.238;6.576;2022-07-29T14:50:57;2.28;;;0.90;;
54929;SDS011;40833;53.238;6.576;2022-07-29T14:53:23;3.08;;;0.50;;
54929;SDS011;40833;53.238;6.576;2022-07-29T14:55:49;3.78;;;0.70;;
54929;SDS011;40833;53.238;6.576;2022-07-29T14:58:15;2.83;;;0.63;;
54929;SDS011;40833;53.238;6.576;2022-07-29T15:00:41;6.32;;;0.80;;
54929;SDS011;40833;53.238;6.576;2022-07-29T15:03:06;3.97;;;0.55;;
54929;SDS011;40833;53.238;6.576;2022-07-29T15:05:35;7.35;;;0.70;;
54929;SDS011;40833;53.238;6.576;2022-07-29T15:08:01;3.38;;;0.73;;
54929;SDS011;40833;53.238;6.576;2022-07-29T15:10:27;5.28;;;0.90;;
54929;SDS011;40833;53.238;6.576;2022-07-29T15:15:13;5.30;;;0.75;;
54929;SDS011;40833;53.238;6.576;2022-07-29T15:17:39;4.32;;;0.80;;
54929;SDS011;40833;53.238;6.576;2022-07-29T15:20:05;6.70;;;0.98;;
54929;SDS011;40833;53.238;6.576;2022-07-29T15:22:31;5.05;;;0.93;;
54929;SDS011;40833;53.238;6.576;2022-07-29T15:24:57;6.72;;;1.10;;
54929;SDS011;40833;53.238;6.576;2022-07-29T15:27:22;4.47;;;0.57;;
54929;SDS011;40833;53.238;6.576;2022-07-29T15:29:51;6.45;;;0.77;;
54929;SDS011;40833;53.238;6.576;2022-07-29T15:32:21;8.52;;;0.55;;
54929;SDS011;40833;53.238;6.576;2022-07-29T15:34:47;3.15;;;0.75;;
54929;SDS011;40833;53.238;6.576;2022-07-29T15:37:13;9.38;;;0.80;;
54929;SDS011;40833;53.238;6.576;2022-07-29T15:39:38;4.10;;;0.60;;
54929;SDS011;40833;53.238;6.576;2022-07-29T15:42:04;3.45;;;0.60;;
54929;SDS011;40833;53.238;6.576;2022-07-29T15:44:30;2.17;;;0.60;;
54929;SDS011;40833;53.238;6.576;2022-07-29T15:46:56;3.97;;;0.85;;
54929;SDS011;40833;53.238;6.576;2022-07-29T15:49:35;6.63;;;0.47;;
54929;SDS011;40833;53.238;6.576;2022-07-29T15:52:03;2.45;;;0.50;;
54929;SDS011;40833;53.238;6.576;2022-07-29T15:54:34;3.03;;;0.40;;
54929;SDS011;40833;53.238;6.576;2022-07-29T15:57:02;2.00;;;0.57;;
54929;SDS011;40833;53.238;6.576;2022-07-29T15:59:30;5.00;;;0.68;;
54929;SDS011;40833;53.238;6.576;2022-07-29T16:01:56;6.13;;;0.60;;
54929;SDS011;40833;53.238;6.576;2022-07-29T16:04:22;6.35;;;0.90;;
54929;SDS011;40833;53.238;6.576;2022-07-29T16:06:48;4.75;;;0.80;;